createdAt,value
2023-03-21T00:00:39.745Z,16.92
2023-03-21T00:03:06.445Z,17.85
2023-03-21T00:05:33.021Z,17.45
2023-03-21T00:08:01.085Z,18.85
2023-03-21T00:10:39.454Z,18.77
2023-03-21T00:13:07.477Z,16.50
2023-03-21T00:15:48.387Z,16.25
2023-03-21T00:18:22.946Z,14.55
2023-03-21T00:23:51.014Z,15.02
2023-03-21T00:26:17.677Z,18.05
2023-03-21T00:28:44.184Z,16.48
2023-03-21T00:31:11.077Z,15.38
2023-03-21T00:33:39.474Z,14.52
2023-03-21T00:36:07.238Z,17.33
2023-03-21T00:38:34.757Z,15.73
2023-03-21T00:41:21.007Z,16.25
2023-03-21T00:43:58.714Z,16.15
2023-03-21T00:46:29.959Z,17.67
2023-03-21T00:48:57.012Z,19.05
2023-03-21T00:51:27.189Z,17.00
2023-03-21T00:53:58.644Z,15.80
2023-03-21T00:56:25.192Z,15.73
2023-03-21T00:58:51.691Z,16.25
2023-03-21T01:01:18.844Z,14.60
2023-03-21T01:03:48.228Z,16.55
2023-03-21T01:06:19.179Z,15.35
2023-03-21T01:08:54.239Z,15.60
2023-03-21T01:11:24.892Z,15.05
2023-03-21T01:13:56.014Z,14.38
2023-03-21T01:16:28.684Z,13.55
2023-03-21T01:18:56.244Z,15.30
2023-03-21T01:21:23.134Z,11.55
2023-03-21T01:23:49.644Z,12.13
2023-03-21T01:26:16.176Z,11.57
2023-03-21T01:28:43.412Z,12.73
2023-03-21T01:31:12.532Z,13.52
2023-03-21T01:33:39.514Z,12.15
2023-03-21T01:36:13.176Z,14.52
2023-03-21T01:38:41.696Z,13.48
2023-03-21T01:41:20.144Z,13.60
2023-03-21T01:43:47.387Z,12.98
2023-03-21T01:46:51.524Z,15.77
2023-03-21T01:49:35.938Z,19.00
2023-03-21T01:52:23.486Z,15.18
2023-03-21T01:54:56.088Z,17.55
2023-03-21T01:57:41.017Z,14.55
2023-03-21T02:00:12.719Z,15.55
2023-03-21T02:02:52.612Z,15.45
2023-03-21T02:05:27.311Z,16.17
2023-03-21T02:07:53.817Z,16.92
2023-03-21T02:10:20.881Z,12.60
2023-03-21T02:12:47.543Z,14.48
2023-03-21T02:15:14.765Z,16.42
2023-03-21T02:18:03.544Z,14.85
2023-03-21T02:20:51.117Z,14.65
2023-03-21T02:23:48.809Z,15.38
2023-03-21T02:26:42.088Z,17.00
2023-03-21T02:29:39.129Z,16.23
2023-03-21T02:32:38.238Z,14.40
2023-03-21T02:35:10.823Z,15.45
2023-03-21T02:37:51.977Z,18.20
2023-03-21T02:40:32.958Z,14.30
2023-03-21T02:43:23.373Z,14.48
2023-03-21T02:45:58.053Z,17.13
2023-03-21T02:48:50.873Z,18.70
2023-03-21T02:51:22.023Z,15.20
2023-03-21T02:54:23.662Z,14.10
2023-03-21T02:56:49.096Z,12.73
2023-03-21T02:59:17.577Z,15.00
2023-03-21T03:01:44.134Z,16.77
2023-03-21T03:04:28.199Z,16.77
2023-03-21T03:07:03.806Z,20.17
2023-03-21T03:10:18.288Z,20.45
2023-03-21T03:13:03.317Z,19.05
2023-03-21T03:15:38.646Z,16.70
2023-03-21T03:18:20.723Z,17.15
2023-03-21T03:21:02.986Z,17.50
2023-03-21T03:23:58.664Z,18.40
2023-03-21T03:26:37.119Z,17.25
2023-03-21T03:29:08.272Z,16.65
2023-03-21T03:31:40.999Z,19.07
2023-03-21T03:34:14.192Z,17.10
2023-03-21T03:36:44.846Z,20.80
2023-03-21T03:39:13.438Z,18.00
2023-03-21T03:42:27.443Z,21.05
2023-03-21T03:44:39.248Z,19.48
2023-03-21T03:47:10.567Z,18.67
2023-03-21T03:49:46.687Z,18.67
2023-03-21T03:52:26.479Z,16.95
2023-03-21T03:54:53.783Z,21.55
2023-03-21T03:57:20.718Z,19.15
2023-03-21T03:59:47.264Z,19.23
2023-03-21T04:02:14.986Z,19.08
2023-03-21T04:04:41.895Z,24.98
2023-03-21T04:07:09.048Z,19.15
2023-03-21T04:09:44.274Z,16.67
2023-03-21T04:12:13.263Z,19.48
2023-03-21T04:14:45.607Z,18.70
2023-03-21T04:17:13.438Z,20.95
2023-03-21T04:19:40.033Z,19.60
2023-03-21T04:22:07.228Z,24.02
2023-03-21T04:24:34.207Z,19.10
2023-03-21T04:27:00.829Z,19.60
2023-03-21T04:29:29.682Z,19.02
2023-03-21T04:31:56.452Z,15.80
2023-03-21T04:34:24.072Z,16.30
2023-03-21T04:36:50.900Z,17.95
2023-03-21T04:39:18.467Z,18.60
2023-03-21T04:41:46.274Z,18.33
2023-03-21T04:44:14.584Z,17.05
2023-03-21T04:46:41.856Z,16.90
2023-03-21T04:49:08.429Z,18.95
2023-03-21T04:51:35.810Z,17.73
2023-03-21T04:54:02.949Z,21.67
2023-03-21T04:56:34.045Z,18.38
2023-03-21T04:59:07.297Z,18.73
2023-03-21T05:01:34.033Z,17.85
2023-03-21T05:04:04.927Z,18.38
2023-03-21T05:06:32.052Z,18.13
2023-03-21T05:09:00.397Z,17.15
2023-03-21T05:11:33.169Z,20.45
2023-03-21T05:13:59.859Z,20.83
2023-03-21T05:16:30.686Z,20.90
2023-03-21T05:18:59.163Z,21.65
2023-03-21T05:21:32.853Z,21.85
2023-03-21T05:24:03.426Z,22.73
2023-03-21T05:26:30.207Z,19.45
2023-03-21T05:28:56.629Z,18.45
2023-03-21T05:31:23.317Z,20.27
2023-03-21T05:33:52.713Z,21.27
2023-03-21T05:36:19.223Z,20.42
2023-03-21T05:38:46.500Z,22.13
2023-03-21T05:41:14.498Z,22.90
2023-03-21T05:43:41.785Z,20.67
2023-03-21T05:46:09.445Z,16.98
2023-03-21T05:48:36.549Z,17.48
2023-03-21T05:51:06.720Z,20.25
2023-03-21T05:53:33.268Z,16.83
2023-03-21T05:55:59.847Z,14.52
2023-03-21T05:58:26.310Z,15.23
2023-03-21T06:00:52.785Z,13.38
2023-03-21T06:03:19.267Z,16.33
2023-03-21T06:05:45.782Z,16.60
2023-03-21T06:08:14.988Z,17.35
2023-03-21T06:10:44.477Z,19.52
2023-03-21T06:13:11.041Z,16.92
2023-03-21T06:15:37.675Z,17.95
2023-03-21T06:18:04.410Z,15.80
2023-03-21T06:20:30.843Z,18.90
2023-03-21T06:22:57.333Z,15.82
2023-03-21T06:25:23.976Z,15.20
2023-03-21T06:27:50.504Z,17.85
2023-03-21T06:30:18.114Z,15.57
2023-03-21T06:32:44.731Z,17.27
2023-03-21T06:35:11.300Z,14.50
2023-03-21T06:37:38.312Z,14.43
2023-03-21T06:40:07.081Z,16.08
2023-03-21T06:42:33.653Z,13.38
2023-03-21T06:45:00.286Z,14.23
2023-03-21T06:47:29.852Z,14.45
2023-03-21T06:49:56.350Z,13.85
2023-03-21T06:52:22.879Z,16.75
2023-03-21T06:54:49.490Z,18.50
2023-03-21T06:57:16.156Z,16.35
2023-03-21T06:59:42.695Z,15.30
2023-03-21T07:02:11.504Z,15.00
2023-03-21T07:04:37.991Z,12.90
2023-03-21T07:07:04.569Z,16.95
2023-03-21T07:09:31.012Z,15.00
2023-03-21T07:11:57.977Z,15.55
2023-03-21T07:14:28.038Z,17.17
2023-03-21T07:16:54.565Z,15.05
2023-03-21T07:19:21.082Z,16.58
2023-03-21T07:21:47.562Z,17.23
2023-03-21T07:24:14.051Z,17.08
2023-03-21T07:26:40.566Z,20.75
2023-03-21T07:29:07.076Z,17.10
2023-03-21T07:31:33.588Z,19.55
2023-03-21T07:34:00.583Z,20.00
2023-03-21T07:36:28.063Z,18.73
2023-03-21T07:38:54.561Z,23.33
2023-03-21T07:41:21.083Z,22.45
2023-03-21T07:43:47.599Z,21.75
2023-03-21T07:46:14.167Z,21.95
2023-03-21T07:48:40.754Z,21.17
2023-03-21T07:51:07.445Z,21.80
2023-03-21T07:53:34.318Z,20.85
2023-03-21T07:56:00.874Z,20.45
2023-03-21T07:58:28.475Z,23.38
2023-03-21T08:00:56.558Z,21.35
2023-03-21T08:03:24.278Z,21.95
2023-03-21T08:05:51.073Z,20.92
2023-03-21T08:08:18.029Z,22.60
2023-03-21T08:10:44.990Z,21.23
2023-03-21T08:13:12.054Z,17.40
2023-03-21T08:15:42.186Z,16.13
2023-03-21T08:18:09.054Z,20.52
2023-03-21T08:20:35.871Z,17.77
2023-03-21T08:23:02.425Z,15.27
2023-03-21T08:25:28.986Z,17.92
2023-03-21T08:27:55.582Z,18.75
2023-03-21T08:30:25.807Z,18.42
2023-03-21T08:33:00.501Z,18.45
2023-03-21T08:35:27.742Z,15.20
2023-03-21T08:37:54.267Z,15.00
2023-03-21T08:40:20.940Z,15.43
2023-03-21T08:42:47.721Z,14.32
2023-03-21T08:45:16.129Z,10.50
2023-03-21T08:47:43.071Z,11.40
2023-03-21T08:50:13.521Z,10.25
2023-03-21T08:52:40.100Z,10.95
2023-03-21T08:55:08.092Z,9.27
2023-03-21T08:57:34.803Z,8.00
2023-03-21T09:00:01.347Z,7.13
2023-03-21T09:02:27.848Z,8.77
2023-03-21T09:04:54.983Z,11.18
2023-03-21T09:07:25.464Z,12.07
2023-03-21T09:10:03.006Z,13.38
2023-03-21T09:12:40.998Z,12.90
2023-03-21T09:15:09.324Z,16.52
2023-03-21T09:17:36.369Z,16.52
2023-03-21T09:20:11.183Z,22.75
2023-03-21T09:22:42.744Z,26.90
2023-03-21T09:25:11.549Z,23.75
2023-03-21T09:27:38.304Z,28.77
2023-03-21T09:30:07.214Z,26.25
2023-03-21T09:32:34.472Z,28.17
2023-03-21T09:35:01.192Z,26.60
2023-03-21T09:37:27.810Z,33.33
2023-03-21T09:39:56.695Z,29.45
2023-03-21T09:42:35.268Z,28.90
2023-03-21T09:45:10.844Z,27.02
2023-03-21T09:47:57.036Z,26.35
2023-03-21T09:50:34.696Z,30.65
2023-03-21T09:53:07.118Z,28.08
2023-03-21T09:55:37.755Z,28.52
2023-03-21T09:58:29.103Z,30.92
2023-03-21T10:01:22.367Z,28.20
2023-03-21T10:03:54.375Z,26.95
2023-03-21T10:08:57.185Z,24.08
2023-03-21T10:11:35.585Z,24.08
2023-03-21T10:14:07.506Z,25.42
2023-03-21T10:19:23.424Z,22.98
2023-03-21T10:22:06.980Z,23.02
2023-03-21T10:24:34.770Z,21.13
2023-03-21T10:27:03.540Z,21.27
2023-03-21T10:29:43.562Z,20.27
2023-03-21T10:32:13.877Z,22.27
2023-03-21T10:34:45.655Z,17.50
2023-03-21T10:37:13.461Z,17.92
2023-03-21T10:39:42.566Z,16.77
2023-03-21T10:42:18.139Z,18.25
2023-03-21T10:44:48.754Z,17.02
2023-03-21T10:47:31.690Z,24.20
2023-03-21T10:50:16.315Z,20.58
2023-03-21T10:52:49.562Z,21.10
2023-03-21T10:55:32.020Z,18.02
2023-03-21T10:58:16.806Z,19.70
2023-03-21T11:00:46.474Z,23.38
2023-03-21T11:03:29.460Z,24.63
2023-03-21T11:05:59.817Z,23.35
2023-03-21T11:08:27.455Z,19.60
2023-03-21T11:10:59.783Z,18.58
2023-03-21T11:13:34.552Z,24.55
2023-03-21T11:16:27.352Z,27.70
2023-03-21T11:19:01.427Z,24.90
2023-03-21T11:21:29.628Z,22.45
2023-03-21T11:23:57.489Z,30.33
2023-03-21T11:26:36.720Z,22.23
2023-03-21T11:29:33.247Z,23.58
2023-03-21T11:32:30.893Z,26.15
2023-03-21T11:35:02.263Z,24.00
2023-03-21T11:37:35.354Z,25.55
2023-03-21T11:40:18.441Z,27.70
2023-03-21T11:42:48.299Z,23.13
2023-03-21T11:45:21.597Z,25.55
2023-03-21T11:47:51.111Z,28.20
2023-03-21T11:50:39.043Z,28.58
2023-03-21T11:53:31.887Z,22.13
2023-03-21T11:56:20.604Z,26.30
2023-03-21T11:59:01.563Z,26.15
2023-03-21T12:01:49.442Z,28.38
2023-03-21T12:04:41.355Z,26.88
2023-03-21T12:07:16.777Z,31.77
2023-03-21T12:10:32.488Z,26.60
2023-03-21T12:13:36.403Z,24.85
2023-03-21T12:16:24.265Z,24.98
2023-03-21T12:19:09.262Z,27.80
2023-03-21T12:21:50.910Z,29.77
2023-03-21T12:26:57.482Z,24.58
2023-03-21T12:29:40.184Z,22.65
2023-03-21T12:32:24.799Z,24.95
2023-03-21T12:34:56.939Z,22.00
2023-03-21T12:37:26.994Z,25.38
2023-03-21T12:40:00.369Z,26.25
2023-03-21T12:42:59.244Z,26.45
2023-03-21T12:45:37.436Z,26.38
2023-03-21T12:48:26.221Z,22.63
2023-03-21T12:53:35.966Z,27.05
2023-03-21T12:56:07.672Z,27.80
2023-03-21T12:58:44.573Z,24.67
2023-03-21T13:01:12.938Z,21.52
2023-03-21T13:03:45.385Z,21.92
2023-03-21T13:06:15.550Z,23.70
2023-03-21T13:08:59.912Z,26.98
2023-03-21T13:11:31.058Z,22.42
2023-03-21T13:14:26.491Z,20.97
2023-03-21T13:17:02.222Z,23.35
2023-03-21T13:19:37.078Z,20.23
2023-03-21T13:22:03.494Z,24.00
2023-03-21T13:24:37.996Z,20.75
2023-03-21T13:27:24.743Z,24.15
2023-03-21T13:30:00.577Z,23.45
2023-03-21T13:32:33.784Z,24.02
2023-03-21T13:35:12.070Z,23.75
2023-03-21T13:37:42.642Z,17.73
2023-03-21T13:40:29.559Z,24.02
2023-03-21T13:42:59.613Z,21.05
2023-03-21T13:45:52.451Z,18.67
2023-03-21T13:48:32.951Z,18.10
2023-03-21T13:51:04.787Z,14.90
2023-03-21T13:53:44.354Z,16.58
2023-03-21T13:56:17.030Z,16.42
2023-03-21T13:58:43.412Z,15.60
2023-03-21T14:01:28.644Z,18.88
2023-03-21T14:03:59.649Z,17.05
2023-03-21T14:06:35.008Z,17.83
2023-03-21T14:09:02.652Z,21.17
2023-03-21T14:11:32.524Z,17.40
2023-03-21T14:14:01.237Z,14.98
2023-03-21T14:16:28.925Z,15.55
2023-03-21T14:19:06.256Z,16.08
2023-03-21T14:21:35.298Z,16.67
2023-03-21T14:24:06.103Z,18.13
2023-03-21T14:26:35.577Z,15.18
2023-03-21T14:29:12.408Z,16.15
2023-03-21T14:31:47.893Z,16.92
2023-03-21T14:34:16.923Z,15.77
2023-03-21T14:36:51.745Z,18.65
2023-03-21T14:39:27.786Z,17.63
2023-03-21T14:41:56.861Z,16.50
2023-03-21T14:44:54.821Z,16.35
2023-03-21T14:47:27.998Z,21.98
2023-03-21T14:49:56.368Z,14.93
2023-03-21T14:52:24.685Z,16.58
2023-03-21T14:54:52.902Z,16.60
2023-03-21T14:57:31.351Z,16.60
2023-03-21T15:00:02.109Z,14.57
2023-03-21T15:02:35.927Z,15.68
2023-03-21T15:05:28.428Z,14.63
2023-03-21T15:08:14.858Z,14.75
2023-03-21T15:10:42.729Z,11.88
2023-03-21T15:13:19.118Z,10.77
2023-03-21T15:15:47.364Z,12.40
2023-03-21T15:18:25.650Z,12.23
2023-03-21T15:20:54.440Z,12.40
2023-03-21T15:23:30.156Z,12.82
2023-03-21T15:25:56.819Z,14.30
2023-03-21T15:28:25.985Z,11.15
2023-03-21T15:30:53.809Z,11.60
2023-03-21T15:33:20.945Z,12.27
2023-03-21T15:35:55.993Z,11.50
2023-03-21T15:38:34.168Z,13.15
2023-03-21T15:41:25.641Z,9.77
2023-03-21T15:44:13.365Z,10.73
2023-03-21T15:46:44.531Z,11.07
2023-03-21T15:49:16.996Z,11.00
2023-03-21T15:51:54.646Z,11.63
2023-03-21T15:54:25.787Z,8.85
2023-03-21T15:57:09.341Z,8.63
2023-03-21T15:59:40.709Z,13.60
2023-03-21T16:02:17.938Z,10.73
2023-03-21T16:05:03.652Z,10.35
2023-03-21T16:07:34.125Z,8.85
2023-03-21T16:10:04.611Z,8.75
2023-03-21T16:12:31.143Z,9.52
2023-03-21T16:14:57.691Z,11.55
2023-03-21T16:17:39.646Z,11.48
2023-03-21T16:20:21.889Z,15.23
2023-03-21T16:22:48.782Z,14.95
2023-03-21T16:25:16.192Z,9.95
2023-03-21T16:27:43.427Z,13.30
2023-03-21T16:30:13.816Z,9.93
2023-03-21T16:32:43.815Z,10.80
2023-03-21T16:35:11.167Z,9.43
2023-03-21T16:37:37.840Z,11.15
2023-03-21T16:40:16.084Z,11.43
2023-03-21T16:42:43.702Z,9.48
2023-03-21T16:45:11.852Z,8.10
2023-03-21T16:47:38.316Z,7.70
2023-03-21T16:50:41.518Z,6.20
2023-03-21T16:53:09.111Z,5.50
2023-03-21T16:55:37.140Z,4.88
2023-03-21T16:58:04.206Z,4.85
2023-03-21T17:00:31.786Z,5.05
2023-03-21T17:03:06.560Z,5.28
2023-03-21T17:05:33.054Z,7.60
2023-03-21T17:08:02.385Z,6.30
2023-03-21T17:10:31.014Z,3.88
2023-03-21T17:13:01.032Z,6.22
2023-03-21T17:15:27.651Z,5.07
2023-03-21T17:17:55.661Z,4.25
2023-03-21T17:20:30.018Z,3.45
2023-03-21T17:22:56.494Z,4.07
2023-03-21T17:25:23.303Z,3.67
2023-03-21T17:27:50.828Z,4.43
2023-03-21T17:30:27.295Z,4.63
2023-03-21T17:32:54.612Z,5.35
2023-03-21T17:35:22.581Z,5.18
2023-03-21T17:37:52.717Z,5.22
2023-03-21T17:40:21.452Z,4.50
2023-03-21T17:42:48.980Z,3.60
2023-03-21T17:45:15.961Z,4.63
2023-03-21T17:47:42.774Z,4.35
2023-03-21T17:50:16.746Z,5.05
2023-03-21T17:52:43.702Z,4.30
2023-03-21T17:55:10.350Z,4.75
2023-03-21T17:57:37.693Z,6.13
2023-03-21T18:00:10.806Z,6.07
2023-03-21T18:02:37.369Z,6.60
2023-03-21T18:05:04.092Z,5.85
2023-03-21T18:08:02.005Z,8.18
2023-03-21T18:10:23.608Z,7.72
2023-03-21T18:12:52.737Z,7.30
2023-03-21T18:15:20.852Z,6.18
2023-03-21T18:17:48.332Z,7.07
2023-03-21T18:20:19.903Z,6.85
2023-03-21T18:22:47.232Z,6.50
2023-03-21T18:25:19.174Z,7.93
2023-03-21T18:30:53.101Z,6.03
2023-03-21T18:33:19.271Z,6.78
2023-03-21T18:35:46.742Z,7.00
2023-03-21T18:38:13.861Z,5.55
2023-03-21T18:40:40.832Z,5.25
2023-03-21T18:45:54.135Z,6.85
2023-03-21T18:48:21.157Z,9.35
2023-03-21T18:50:47.742Z,6.57
2023-03-21T18:53:14.241Z,6.25
2023-03-21T18:55:46.490Z,5.10
2023-03-21T18:58:16.992Z,3.63
2023-03-21T19:00:43.853Z,4.35
2023-03-21T19:03:26.967Z,7.10
2023-03-21T19:06:00.725Z,5.07
2023-03-21T19:08:27.519Z,5.53
2023-03-21T19:10:54.062Z,7.53
2023-03-21T19:13:20.673Z,5.45
2023-03-21T19:15:49.539Z,7.78
2023-03-21T19:21:03.535Z,6.70
2023-03-21T19:23:40.836Z,6.90
2023-03-21T19:26:16.817Z,5.72
2023-03-21T19:28:43.302Z,8.52
2023-03-21T19:31:09.814Z,5.53
2023-03-21T19:33:36.858Z,8.38
2023-03-21T19:36:16.053Z,7.80
2023-03-21T19:38:44.965Z,9.65
2023-03-21T19:41:11.512Z,8.77
2023-03-21T19:43:39.980Z,9.50
2023-03-21T19:46:08.165Z,9.40
2023-03-21T19:48:34.870Z,8.77
2023-03-21T19:53:49.666Z,7.68
2023-03-21T19:56:22.871Z,9.98
2023-03-21T19:58:51.087Z,8.50
2023-03-21T20:01:20.653Z,11.30
2023-03-21T20:03:47.589Z,7.97
2023-03-21T20:06:14.144Z,9.52
2023-03-21T20:09:13.587Z,10.48
2023-03-21T20:11:27.814Z,7.82
2023-03-21T20:13:54.473Z,9.77
2023-03-21T20:16:21.366Z,10.20
2023-03-21T20:18:48.048Z,12.00
2023-03-21T20:21:18.111Z,8.13
2023-03-21T20:23:50.822Z,10.13
2023-03-21T20:26:17.790Z,9.18
2023-03-21T20:28:56.587Z,12.90
2023-03-21T20:31:30.529Z,8.80
2023-03-21T20:33:57.130Z,10.27
2023-03-21T20:36:41.345Z,10.48
2023-03-21T20:39:10.206Z,11.15
2023-03-21T20:41:37.190Z,9.05
2023-03-21T20:46:50.410Z,13.40
2023-03-21T20:49:17.010Z,9.27
2023-03-21T20:54:30.416Z,12.65
2023-03-21T20:56:57.241Z,12.80
2023-03-21T20:59:27.757Z,13.95
2023-03-21T21:01:58.588Z,12.50
2023-03-21T21:04:44.867Z,14.25
2023-03-21T21:07:17.269Z,15.88
2023-03-21T21:09:44.930Z,14.35
2023-03-21T21:12:12.607Z,14.35
2023-03-21T21:14:39.274Z,13.82
2023-03-21T21:17:24.498Z,16.65
2023-03-21T21:19:54.390Z,15.68
2023-03-21T21:22:20.950Z,18.45
2023-03-21T21:24:47.898Z,14.02
2023-03-21T21:27:14.466Z,19.20
2023-03-21T21:29:43.167Z,13.05
2023-03-21T21:32:09.760Z,15.77
2023-03-21T21:34:37.062Z,13.48
2023-03-21T21:37:03.783Z,15.52
2023-03-21T21:39:35.761Z,13.25
2023-03-21T21:44:29.366Z,13.70
2023-03-21T21:46:57.456Z,14.20
2023-03-21T21:49:24.397Z,13.82
2023-03-21T21:51:50.908Z,16.60
2023-03-21T21:54:18.147Z,17.15
2023-03-21T21:56:48.320Z,15.30
2023-03-21T21:59:21.988Z,17.77
2023-03-21T22:01:51.452Z,13.43
2023-03-21T22:04:27.647Z,16.08
2023-03-21T22:06:57.149Z,14.68
2023-03-21T22:09:23.652Z,15.70
2023-03-21T22:11:50.257Z,16.48
2023-03-21T22:14:16.794Z,16.25
2023-03-21T22:16:43.927Z,15.43
2023-03-21T22:19:10.669Z,16.35
2023-03-21T22:21:37.151Z,15.10
2023-03-21T22:24:03.878Z,14.70
2023-03-21T22:26:30.595Z,15.38
2023-03-21T22:28:57.885Z,15.10
2023-03-21T22:31:25.954Z,13.73
2023-03-21T22:33:52.624Z,13.05
2023-03-21T22:36:20.086Z,17.60
2023-03-21T22:38:47.840Z,18.88
2023-03-21T22:41:14.495Z,15.35
2023-03-21T22:43:41.038Z,16.13
2023-03-21T22:46:07.668Z,18.95
2023-03-21T22:48:34.821Z,16.80
2023-03-21T22:51:01.930Z,16.35
2023-03-21T22:53:28.972Z,17.83
2023-03-21T22:55:58.471Z,14.57
2023-03-21T22:58:25.043Z,16.70
2023-03-21T23:00:51.873Z,15.63
2023-03-21T23:03:18.610Z,15.68
2023-03-21T23:05:45.552Z,19.05
2023-03-21T23:08:12.519Z,12.93
2023-03-21T23:10:40.205Z,14.27
2023-03-21T23:13:07.008Z,18.73
2023-03-21T23:15:33.850Z,15.57
2023-03-21T23:18:00.364Z,18.50
2023-03-21T23:20:27.020Z,14.75
2023-03-21T23:22:53.491Z,16.52
2023-03-21T23:25:20.594Z,19.42
2023-03-21T23:27:47.480Z,18.60
2023-03-21T23:30:14.149Z,17.00
2023-03-21T23:32:40.781Z,19.52
2023-03-21T23:35:08.874Z,18.08
2023-03-21T23:37:35.778Z,17.85
2023-03-21T23:40:02.374Z,21.90
2023-03-21T23:42:29.926Z,20.83
2023-03-21T23:44:57.099Z,19.73
2023-03-21T23:47:23.654Z,18.25
2023-03-21T23:49:52.744Z,18.45
2023-03-21T23:52:19.667Z,18.15
2023-03-21T23:54:46.211Z,19.38
2023-03-21T23:57:12.779Z,22.50
2023-03-21T23:59:39.322Z,18.50
